createdAt,value
2023-08-07T00:07:40.612Z,8.8
2023-08-07T00:17:43.364Z,8.8
2023-08-07T00:27:40.071Z,8.7
2023-08-07T00:37:40.206Z,8.6
2023-08-07T00:47:40.833Z,8.5
2023-08-07T00:57:40.156Z,8.4
2023-08-07T01:07:40.138Z,8.3
2023-08-07T01:17:42.810Z,8.2
2023-08-07T01:27:40.249Z,8.1
2023-08-07T01:37:40.244Z,8.0
2023-08-07T01:47:40.217Z,7.9
2023-08-07T01:57:40.190Z,7.8
2023-08-07T02:07:40.982Z,7.7
2023-08-07T02:17:40.721Z,7.6
2023-08-07T02:27:40.621Z,7.5
2023-08-07T02:37:40.982Z,7.5
2023-08-07T02:47:40.452Z,7.4
2023-08-07T02:57:40.176Z,7.3
2023-08-07T03:07:41.103Z,7.3
2023-08-07T03:17:40.635Z,7.2
2023-08-07T03:27:40.299Z,7.1
2023-08-07T03:37:43.230Z,7.0
2023-08-07T03:47:40.281Z,6.9
2023-08-07T03:57:40.300Z,6.8
2023-08-07T04:07:40.554Z,6.7
2023-08-07T04:17:40.392Z,6.6
2023-08-07T04:27:40.760Z,6.6
2023-08-07T04:37:41.475Z,6.5
2023-08-07T04:47:40.284Z,6.4
2023-08-07T04:57:40.395Z,6.3
2023-08-07T05:07:40.312Z,6.2
2023-08-07T05:17:40.343Z,6.1
2023-08-07T05:27:40.487Z,6.0
2023-08-07T05:37:40.235Z,5.9
2023-08-07T05:47:40.413Z,5.7
2023-08-07T05:57:40.175Z,5.6
2023-08-07T06:07:40.217Z,5.5
2023-08-07T06:17:40.781Z,5.4
2023-08-07T06:27:40.765Z,5.3
2023-08-07T06:37:40.221Z,5.2
2023-08-07T06:47:40.301Z,5.1
2023-08-07T06:57:40.218Z,5.0
2023-08-07T07:07:41.256Z,5.0
2023-08-07T07:17:40.417Z,4.9
2023-08-07T07:27:40.321Z,4.8
2023-08-07T07:37:40.256Z,4.7
2023-08-07T07:47:40.325Z,4.6
2023-08-07T07:57:40.365Z,4.5
2023-08-07T08:07:40.369Z,4.3
2023-08-07T08:17:40.719Z,4.3
2023-08-07T08:27:40.822Z,4.2
2023-08-07T08:37:40.279Z,4.1
2023-08-07T08:47:40.514Z,4.0
2023-08-07T08:57:42.054Z,3.9
2023-08-07T09:07:40.922Z,3.8
2023-08-07T09:17:40.622Z,3.7
2023-08-07T09:27:40.634Z,3.5
2023-08-07T09:37:40.417Z,3.4
2023-08-07T09:47:40.645Z,3.3
2023-08-07T09:57:40.872Z,3.2
2023-08-07T10:07:40.714Z,3.1
2023-08-07T10:17:41.038Z,3.0
2023-08-07T10:27:40.868Z,2.9
2023-08-07T10:37:40.770Z,2.7
2023-08-07T10:47:40.871Z,2.6
2023-08-07T10:57:40.683Z,2.5
2023-08-07T11:07:40.614Z,2.4
2023-08-07T11:17:41.704Z,2.4
2023-08-07T11:27:41.278Z,2.3
2023-08-07T11:37:40.864Z,2.2
2023-08-07T11:47:40.669Z,2.1
2023-08-07T11:57:40.594Z,2.1
2023-08-07T12:07:42.236Z,2.0
2023-08-07T12:17:40.665Z,2.0
2023-08-07T12:27:40.694Z,1.9
2023-08-07T12:37:40.587Z,1.8
2023-08-07T12:47:40.827Z,1.8
2023-08-07T12:57:40.626Z,1.7
2023-08-07T13:07:40.821Z,1.6
2023-08-07T13:17:40.651Z,1.5
2023-08-07T13:27:40.796Z,1.5
2023-08-07T13:37:40.694Z,1.5
2023-08-07T13:47:40.924Z,1.4
2023-08-07T13:57:41.007Z,1.4
2023-08-07T14:07:43.853Z,1.3
2023-08-07T14:17:42.038Z,1.3
2023-08-07T14:27:41.118Z,1.3
2023-08-07T14:37:40.809Z,1.3
2023-08-07T14:47:41.999Z,1.2
2023-08-07T14:57:41.162Z,1.2
2023-08-07T15:07:41.724Z,1.1
2023-08-07T15:17:40.889Z,1.1
2023-08-07T15:27:41.181Z,1.1
2023-08-07T15:37:41.221Z,1.0
2023-08-07T15:47:41.170Z,1.0
2023-08-07T15:57:41.327Z,1.0
2023-08-07T16:07:41.037Z,1.0
2023-08-07T16:17:41.576Z,0.9
2023-08-07T16:27:40.991Z,0.9
2023-08-07T16:37:41.206Z,0.9
2023-08-07T16:47:41.407Z,0.9
2023-08-07T16:57:41.347Z,0.8
2023-08-07T17:07:42.654Z,0.8
2023-08-07T17:17:41.223Z,0.8
2023-08-07T17:27:41.783Z,0.8
2023-08-07T17:37:41.120Z,0.9
2023-08-07T17:47:41.628Z,0.9
2023-08-07T17:57:41.053Z,0.9
2023-08-07T18:07:42.560Z,0.9
2023-08-07T18:17:41.325Z,0.9
2023-08-07T18:27:41.222Z,0.9
2023-08-07T18:37:41.303Z,0.9
2023-08-07T18:47:41.177Z,0.9
2023-08-07T18:57:41.261Z,0.9
2023-08-07T19:07:41.449Z,0.9
2023-08-07T19:17:42.661Z,0.9
2023-08-07T19:27:41.394Z,1.0
2023-08-07T19:37:42.051Z,1.0
2023-08-07T19:47:41.712Z,1.0
2023-08-07T19:57:41.659Z,1.0
2023-08-07T20:07:41.814Z,1.0
2023-08-07T20:17:41.670Z,1.0
2023-08-07T20:27:41.641Z,1.0
2023-08-07T20:37:41.820Z,1.1
2023-08-07T20:47:41.873Z,1.1
2023-08-07T20:57:41.765Z,1.1
2023-08-07T21:07:42.050Z,1.1
2023-08-07T21:17:41.748Z,1.1
2023-08-07T21:27:41.708Z,1.2
2023-08-07T21:37:42.110Z,1.2
2023-08-07T21:47:42.334Z,1.2
2023-08-07T21:57:41.884Z,1.2
2023-08-07T22:07:42.584Z,1.3
2023-08-07T22:17:43.512Z,1.3
2023-08-07T22:27:41.865Z,1.3
2023-08-07T22:37:42.296Z,1.3
2023-08-07T22:47:42.323Z,1.3
2023-08-07T22:57:42.041Z,1.4
2023-08-07T23:07:48.870Z,1.4
2023-08-07T23:17:45.805Z,1.4
2023-08-07T23:27:42.722Z,1.4
2023-08-07T23:37:45.544Z,1.4
2023-08-07T23:47:45.126Z,1.5
2023-08-07T23:57:42.973Z,1.5
